AAL705 EDDF-KCLT
Flight info
| Callsign | AAL705 |
|---|---|
| Flight time | N/A |
| Altitude | 35000 |
| Route | MARUN7F/25C MARUN Y150 TOLGI DCT TUSKA/N0485F360 DCT OKMAM DCT UNBUD DCT LAPOT DCT GUNPA/M083F360 DCT 63N010W 6330N02000W/M083F380 63N030W 62N040W 5930N05000W DCT AVUTI/N0487F380 N834A DUVBI DCT PEKRO/N0483F400 DCT MUNBO DCT CASTR DCT QUBIS DCT KAYCC DCT KYLOH DCT NELIE Q75 GVE DCT AIROW CHSLY6 |
| Aircraft | B772/H-SDE2E3FGHIJ5LORVWXY/LB1D1 |
Departure
| Time | 2026-04-14 07:31 |
|---|---|
| Airport | Frankfurt Main Airport (EDDF) |
Arrival
| Time | N/A |
|---|---|
| Airport | Charlotte Douglas International Airport (KCLT) |
| Time | Latitude | Longitude | Altitude | Speed | Heading |
|---|---|---|---|---|---|
| 2026-04-14 06:39 | 50.05093 | 8.58851 | 385 ft | 0 kts | 341° |
| 2026-04-14 07:18 | 50.05082 | 8.58857 | 384 ft | 2 kts | 341° |
| 2026-04-14 07:18 | 50.05067 | 8.58865 | 383 ft | 2 kts | 341° |
| 2026-04-14 07:18 | 50.05055 | 8.58872 | 382 ft | 2 kts | 341° |
| 2026-04-14 07:18 | 50.05039 | 8.58881 | 381 ft | 2 kts | 341° |
| 2026-04-14 07:19 | 50.05025 | 8.58889 | 380 ft | 2 kts | 339° |
| 2026-04-14 07:19 | 50.05013 | 8.58902 | 379 ft | 2 kts | 299° |
| 2026-04-14 07:19 | 50.05008 | 8.58924 | 378 ft | 2 kts | 268° |
| 2026-04-14 07:19 | 50.05012 | 8.58946 | 378 ft | 2 kts | 245° |
| 2026-04-14 07:20 | 50.05018 | 8.58966 | 378 ft | 2 kts | 247° |
| 2026-04-14 07:20 | 50.05023 | 8.58987 | 377 ft | 2 kts | 249° |
| 2026-04-14 07:20 | 50.05026 | 8.58998 | 377 ft | 0 kts | 249° |
| 2026-04-14 07:24 | 50.05025 | 8.58996 | 377 ft | 0 kts | 250° |
| 2026-04-14 07:24 | 50.05020 | 8.58974 | 378 ft | 4 kts | 249° |
| 2026-04-14 07:24 | 50.05002 | 8.58899 | 378 ft | 12 kts | 250° |
| 2026-04-14 07:25 | 50.04965 | 8.58755 | 379 ft | 15 kts | 246° |
| 2026-04-14 07:25 | 50.04950 | 8.58708 | 379 ft | 3 kts | 238° |
| 2026-04-14 07:25 | 50.04920 | 8.58670 | 378 ft | 6 kts | 205° |
| 2026-04-14 07:25 | 50.04874 | 8.58691 | 375 ft | 10 kts | 161° |
| 2026-04-14 07:26 | 50.04792 | 8.58734 | 370 ft | 5 kts | 163° |
| 2026-04-14 07:26 | 50.04777 | 8.58741 | 369 ft | 1 kts | 163° |
| 2026-04-14 07:26 | 50.04776 | 8.58742 | 369 ft | 0 kts | 163° |
| 2026-04-14 07:27 | 50.04757 | 8.58750 | 368 ft | 6 kts | 165° |
| 2026-04-14 07:27 | 50.04694 | 8.58757 | 366 ft | 10 kts | 185° |
| 2026-04-14 07:28 | 50.04623 | 8.58742 | 367 ft | 11 kts | 192° |
| 2026-04-14 07:28 | 50.04580 | 8.58709 | 368 ft | 7 kts | 219° |
| 2026-04-14 07:28 | 50.04540 | 8.58657 | 367 ft | 9 kts | 219° |
| 2026-04-14 07:28 | 50.04496 | 8.58599 | 369 ft | 5 kts | 225° |
| 2026-04-14 07:29 | 50.04482 | 8.58570 | 370 ft | 2 kts | 245° |
| 2026-04-14 07:29 | 50.04479 | 8.58560 | 371 ft | 0 kts | 249° |
| 2026-04-14 07:29 | 50.04471 | 8.58526 | 372 ft | 12 kts | 249° |
| 2026-04-14 07:29 | 50.04369 | 8.58087 | 377 ft | 78 kts | 250° |
| 2026-04-14 07:30 | 50.04137 | 8.57126 | 369 ft | 135 kts | 251° |
| 2026-04-14 07:31 | 50.02657 | 8.49483 | 1881 ft | 205 kts | 279° |
| 2026-04-14 07:31 | 50.02866 | 8.47187 | 2102 ft | 228 kts | 279° |
| 2026-04-14 07:31 | 50.03008 | 8.44872 | 2402 ft | 246 kts | 271° |
| 2026-04-14 07:31 | 50.02772 | 8.42142 | 3109 ft | 249 kts | 262° |
| 2026-04-14 07:32 | 50.02485 | 8.39672 | 3677 ft | 252 kts | 267° |
| 2026-04-14 07:32 | 50.02629 | 8.37127 | 4130 ft | 254 kts | 290° |
| 2026-04-14 07:32 | 50.03474 | 8.34851 | 4748 ft | 252 kts | 312° |
| 2026-04-14 07:32 | 50.04671 | 8.33372 | 4974 ft | 251 kts | 328° |
| 2026-04-14 07:33 | 50.06206 | 8.32072 | 5012 ft | 250 kts | 330° |
| 2026-04-14 07:34 | 50.13777 | 8.27744 | 6398 ft | 258 kts | 9° |
| 2026-04-14 07:34 | 50.15472 | 8.28798 | 6897 ft | 268 kts | 22° |
| 2026-04-14 07:34 | 50.17128 | 8.30184 | 7454 ft | 272 kts | 24° |
| 2026-04-14 07:35 | 50.18790 | 8.31616 | 7971 ft | 277 kts | 24° |
| 2026-04-14 07:35 | 50.20458 | 8.33053 | 8501 ft | 280 kts | 24° |
| 2026-04-14 07:35 | 50.22150 | 8.34508 | 9003 ft | 284 kts | 24° |
| 2026-04-14 07:35 | 50.23520 | 8.35686 | 9413 ft | 287 kts | 24° |